createdAt,value
2022-12-16T00:00:37.925Z,10.35
2022-12-16T00:05:44.413Z,9.60
2022-12-16T00:10:46.084Z,9.85
2022-12-16T00:15:47.602Z,9.65
2022-12-16T00:20:52.272Z,10.48
2022-12-16T00:25:56.457Z,9.05
2022-12-16T00:30:57.887Z,9.95
2022-12-16T00:35:59.291Z,10.30
2022-12-16T00:41:01.121Z,11.05
2022-12-16T00:46:02.704Z,10.18
2022-12-16T00:51:04.367Z,10.85
2022-12-16T00:56:08.639Z,11.50
2022-12-16T01:01:10.729Z,10.50
2022-12-16T01:06:15.469Z,11.18
2022-12-16T01:11:19.291Z,12.48
2022-12-16T01:16:20.793Z,10.93
2022-12-16T01:21:22.443Z,10.38
2022-12-16T01:26:24.025Z,10.02
2022-12-16T01:31:25.664Z,10.80
2022-12-16T01:36:27.343Z,11.13
2022-12-16T01:41:28.885Z,11.70
2022-12-16T01:46:30.562Z,9.85
2022-12-16T01:51:38.867Z,11.70
2022-12-16T01:56:46.042Z,11.98
2022-12-16T02:01:47.581Z,9.90
2022-12-16T02:06:49.387Z,11.70
2022-12-16T02:12:20.448Z,10.82
2022-12-16T02:17:56.923Z,11.23
2022-12-16T02:23:26.203Z,10.93
2022-12-16T02:29:03.089Z,10.10
2022-12-16T02:34:30.501Z,10.38
2022-12-16T02:39:36.991Z,11.90
2022-12-16T02:45:04.786Z,9.77
2022-12-16T02:50:20.382Z,10.40
2022-12-16T02:55:32.877Z,10.90
2022-12-16T03:00:48.086Z,10.85
2022-12-16T03:05:51.349Z,9.48
2022-12-16T03:11:03.205Z,9.32
2022-12-16T03:16:07.451Z,8.70
2022-12-16T03:21:10.126Z,9.93
2022-12-16T03:26:18.947Z,9.45
2022-12-16T03:31:55.613Z,9.70
2022-12-16T03:37:02.594Z,10.98
2022-12-16T03:42:05.379Z,9.57
2022-12-16T03:47:06.852Z,10.30
2022-12-16T03:52:08.738Z,9.80
2022-12-16T03:57:15.017Z,10.38
2022-12-16T04:02:17.294Z,10.15
2022-12-16T04:07:18.921Z,9.57
2022-12-16T04:12:20.912Z,10.00
2022-12-16T04:17:22.414Z,11.05
2022-12-16T04:22:27.507Z,9.43
2022-12-16T04:27:29.049Z,9.82
2022-12-16T04:32:31.225Z,10.35
2022-12-16T04:37:32.724Z,11.05
2022-12-16T04:42:34.223Z,9.77
2022-12-16T04:47:35.685Z,8.80
2022-12-16T04:52:37.107Z,8.30
2022-12-16T04:57:38.622Z,10.80
2022-12-16T05:02:40.157Z,9.35
2022-12-16T05:07:41.692Z,9.93
2022-12-16T05:12:43.208Z,10.00
2022-12-16T05:17:44.648Z,8.20
2022-12-16T05:22:46.230Z,9.85
2022-12-16T05:27:52.109Z,36.92
2022-12-16T05:32:53.568Z,8.48
2022-12-16T05:37:57.126Z,13.52
2022-12-16T05:42:58.569Z,12.38
2022-12-16T05:48:00.033Z,8.77
2022-12-16T05:53:01.456Z,8.80
2022-12-16T05:58:02.971Z,7.70
2022-12-16T06:03:04.643Z,7.57
2022-12-16T06:08:06.207Z,10.95
2022-12-16T06:13:07.653Z,13.55
2022-12-16T06:18:09.066Z,9.88
2022-12-16T06:23:10.510Z,8.27
2022-12-16T06:28:11.943Z,8.85
2022-12-16T06:33:13.463Z,8.25
2022-12-16T06:38:14.956Z,7.15
2022-12-16T06:43:16.384Z,7.28
2022-12-16T06:48:17.926Z,8.25
2022-12-16T06:53:19.524Z,8.30
2022-12-16T06:58:20.994Z,8.25
2022-12-16T07:03:22.521Z,9.40
2022-12-16T07:08:23.980Z,8.80
2022-12-16T07:13:25.462Z,7.97
2022-12-16T07:18:26.893Z,7.93
2022-12-16T07:23:28.344Z,8.90
2022-12-16T07:28:29.823Z,9.48
2022-12-16T07:33:31.511Z,9.57
2022-12-16T07:38:33.228Z,10.05
2022-12-16T07:43:34.968Z,10.80
2022-12-16T07:48:36.680Z,9.68
2022-12-16T07:53:38.808Z,9.38
2022-12-16T07:58:40.865Z,10.93
2022-12-16T08:03:42.344Z,9.93
2022-12-16T08:08:43.874Z,10.05
2022-12-16T08:13:45.296Z,10.23
2022-12-16T08:18:46.780Z,10.27
2022-12-16T08:23:48.366Z,9.32
2022-12-16T08:28:50.404Z,9.15
2022-12-16T08:33:51.919Z,9.80
2022-12-16T08:38:54.195Z,8.38
2022-12-16T08:43:57.243Z,9.70
2022-12-16T08:48:58.673Z,9.07
2022-12-16T08:54:00.105Z,10.18
2022-12-16T08:59:01.644Z,12.13
2022-12-16T09:04:03.199Z,9.48
2022-12-16T09:09:04.812Z,11.02
2022-12-16T09:14:06.304Z,10.75
2022-12-16T09:19:07.815Z,11.43
2022-12-16T09:24:09.532Z,11.07
2022-12-16T09:29:10.964Z,10.43
2022-12-16T09:34:12.376Z,10.73
2022-12-16T09:39:13.808Z,11.82
2022-12-16T09:44:30.531Z,12.95
2022-12-16T09:49:49.730Z,13.90
2022-12-16T09:54:51.427Z,11.63
2022-12-16T10:00:02.610Z,17.33
2022-12-16T10:05:12.596Z,13.55
2022-12-16T10:10:29.645Z,12.20
2022-12-16T10:15:56.269Z,11.25
2022-12-16T10:20:57.917Z,11.38
2022-12-16T10:26:12.311Z,12.88
2022-12-16T10:31:17.135Z,11.65
2022-12-16T10:36:23.662Z,10.05
2022-12-16T10:41:29.253Z,11.60
2022-12-16T10:46:35.079Z,11.02
2022-12-16T10:51:36.509Z,12.45
2022-12-16T10:56:43.714Z,11.40
2022-12-16T11:02:00.576Z,12.60
2022-12-16T11:07:02.120Z,11.98
2022-12-16T11:12:32.032Z,14.90
2022-12-16T11:17:33.466Z,13.25
2022-12-16T11:22:34.923Z,12.30
2022-12-16T11:27:37.618Z,12.70
2022-12-16T11:32:43.715Z,12.50
2022-12-16T11:37:47.783Z,15.18
2022-12-16T11:42:49.349Z,13.95
2022-12-16T11:48:05.753Z,14.40
2022-12-16T11:53:31.525Z,14.32
2022-12-16T11:58:36.250Z,15.27
2022-12-16T12:03:43.894Z,15.40
2022-12-16T12:08:51.800Z,14.13
2022-12-16T12:13:56.174Z,15.68
2022-12-16T12:19:14.737Z,13.60
2022-12-16T12:24:31.474Z,14.98
2022-12-16T12:29:44.702Z,14.68
2022-12-16T12:35:18.270Z,15.15
2022-12-16T12:40:19.784Z,16.15
2022-12-16T12:45:39.951Z,13.60
2022-12-16T12:56:36.339Z,13.13
2022-12-16T13:01:42.931Z,14.95
2022-12-16T13:06:44.765Z,17.83
2022-12-16T13:12:12.177Z,14.90
2022-12-16T13:17:13.680Z,15.07
2022-12-16T13:22:34.093Z,14.98
2022-12-16T13:27:49.987Z,15.98
2022-12-16T13:33:04.947Z,17.13
2022-12-16T13:38:20.551Z,16.15
2022-12-16T13:43:53.035Z,16.83
2022-12-16T13:49:34.900Z,15.77
2022-12-16T13:54:41.616Z,15.35
2022-12-16T13:59:43.692Z,15.15
2022-12-16T14:04:52.477Z,17.77
2022-12-16T14:09:54.003Z,16.33
2022-12-16T14:15:38.610Z,15.95
2022-12-16T14:21:04.626Z,14.02
2022-12-16T14:26:12.190Z,14.70
2022-12-16T14:31:35.314Z,13.55
2022-12-16T14:36:39.703Z,17.58
2022-12-16T14:41:41.205Z,16.40
2022-12-16T14:46:42.801Z,14.18
2022-12-16T14:51:48.305Z,14.48
2022-12-16T14:56:49.805Z,15.00
2022-12-16T15:01:53.454Z,14.77
2022-12-16T15:06:55.797Z,14.85
2022-12-16T15:11:57.443Z,13.98
2022-12-16T15:16:59.253Z,15.95
2022-12-16T15:22:01.158Z,15.65
2022-12-16T15:27:20.979Z,15.52
2022-12-16T15:32:29.355Z,15.25
2022-12-16T15:37:39.675Z,17.30
2022-12-16T15:42:42.010Z,16.95
2022-12-16T15:47:43.480Z,15.90
2022-12-16T15:52:45.128Z,16.52
2022-12-16T15:57:56.521Z,15.98
2022-12-16T16:02:58.206Z,14.88
2022-12-16T16:08:03.655Z,15.38
2022-12-16T16:13:06.372Z,14.18
2022-12-16T16:18:10.061Z,19.35
2022-12-16T16:23:12.156Z,15.93
2022-12-16T16:28:13.626Z,17.33
2022-12-16T16:33:15.156Z,18.02
2022-12-16T16:38:18.554Z,16.05
2022-12-16T16:43:21.229Z,14.52
2022-12-16T16:48:30.105Z,15.27
2022-12-16T16:53:31.946Z,17.33
2022-12-16T16:58:34.386Z,17.92
2022-12-16T17:03:36.422Z,16.45
2022-12-16T17:08:38.369Z,16.23
2022-12-16T17:13:39.799Z,16.02
2022-12-16T17:18:45.598Z,18.10
2022-12-16T17:23:49.848Z,15.68
2022-12-16T17:28:51.362Z,19.00
2022-12-16T17:33:52.875Z,18.52
2022-12-16T17:38:54.312Z,20.60
2022-12-16T17:43:55.734Z,18.15
2022-12-16T17:48:58.713Z,18.48
2022-12-16T17:54:02.073Z,18.70
2022-12-16T17:59:11.057Z,18.27
2022-12-16T18:04:12.785Z,18.13
2022-12-16T18:09:14.242Z,16.30
2022-12-16T18:14:15.670Z,14.80
2022-12-16T18:19:17.800Z,15.95
2022-12-16T18:24:19.268Z,15.38
2022-12-16T18:29:20.847Z,15.00
2022-12-16T18:34:22.395Z,15.75
2022-12-16T18:39:24.015Z,16.67
2022-12-16T18:44:25.500Z,15.05
2022-12-16T18:49:26.999Z,14.02
2022-12-16T18:54:28.520Z,14.25
2022-12-16T18:59:29.964Z,13.85
2022-12-16T19:04:34.311Z,13.50
2022-12-16T19:09:35.727Z,14.57
2022-12-16T19:14:37.136Z,14.98
2022-12-16T19:19:38.545Z,13.23
2022-12-16T19:24:40.056Z,13.25
2022-12-16T19:29:41.554Z,13.40
2022-12-16T19:34:43.052Z,13.95
2022-12-16T19:39:44.477Z,15.60
2022-12-16T19:44:45.978Z,14.05
2022-12-16T19:49:47.453Z,13.90
2022-12-16T19:54:48.949Z,13.90
2022-12-16T19:59:50.395Z,15.18
2022-12-16T20:04:53.175Z,14.27
2022-12-16T20:09:57.825Z,13.27
2022-12-16T20:14:59.335Z,14.85
2022-12-16T20:20:00.848Z,12.30
2022-12-16T20:25:02.391Z,13.30
2022-12-16T20:30:04.524Z,13.35
2022-12-16T20:35:06.125Z,14.45
2022-12-16T20:40:08.164Z,14.10
2022-12-16T20:45:11.687Z,14.68
2022-12-16T20:50:14.536Z,14.00
2022-12-16T20:55:16.046Z,14.05
2022-12-16T21:00:17.617Z,14.20
2022-12-16T21:05:19.213Z,15.38
2022-12-16T21:10:20.836Z,13.88
2022-12-16T21:15:22.392Z,15.55
2022-12-16T21:20:23.869Z,15.00
2022-12-16T21:25:25.370Z,14.50
2022-12-16T21:30:27.191Z,14.43
2022-12-16T21:35:29.082Z,13.80
2022-12-16T21:40:30.548Z,15.73
2022-12-16T21:45:31.993Z,15.30
2022-12-16T21:50:33.468Z,14.13
2022-12-16T21:55:35.237Z,14.52
2022-12-16T22:00:36.746Z,15.10
2022-12-16T22:05:38.184Z,14.43
2022-12-16T22:10:39.652Z,16.75
2022-12-16T22:15:41.060Z,17.08
2022-12-16T22:20:42.472Z,16.08
2022-12-16T22:25:44.044Z,16.35
2022-12-16T22:30:53.057Z,15.75
2022-12-16T22:36:05.211Z,17.48
2022-12-16T22:41:06.755Z,16.30
2022-12-16T22:46:08.334Z,16.08
2022-12-16T22:51:14.526Z,15.68
2022-12-16T22:56:16.028Z,16.55
2022-12-16T23:01:17.477Z,15.95
2022-12-16T23:06:18.895Z,17.38
2022-12-16T23:11:25.944Z,15.20
2022-12-16T23:16:27.516Z,16.65
2022-12-16T23:21:29.062Z,15.48
2022-12-16T23:26:30.504Z,16.27
2022-12-16T23:31:31.995Z,14.95
2022-12-16T23:36:33.559Z,15.75
2022-12-16T23:41:34.993Z,16.17
2022-12-16T23:46:36.521Z,14.77
2022-12-16T23:51:37.992Z,16.65
2022-12-16T23:56:39.491Z,16.35
